Butts AAF (Fort Carson) Air Field Fort Carson US
ICAO: KFCS
IATA: FCS
Category: Medium
Scheduled Services: No

Elevation: 5838 ft
TransAlt. 18000 ft.

Airport Communications:
SPRINGS APP/DEP:124
FLT FLW:38.35
ATIS:108.8
PMSV METRO:44.1
PTD/OPS:141.15
TWR:125.5

KFCS Zoom In..

If you have problems with the map follow the link
https://www.worldairports.se/pages/airport.php?
ICAO=KFCS

Runways:

(A) RW 04 length 2307 ft width 75 ft
---- / hdg 39

(B) RW 13 length 4572 ft width 75 ft
---- / hdg 126

(C) RW 22 length 2307 ft width 75 ft
---- / hdg 219

(D) RW 31 length 4572 ft width 75 ft
---- / hdg 306

Location; KFCS
Day. 16 / Time. 02.58 Zulu
* Altimeter: 30.17
* Temperature: 06° c. 42.8°f.
* Wind from: 250° Speed 05 kn.
Dewpoint: -06° c.
Visibility: 10 Statute Miles.
Clouds: Few 22000 ft.

KFCS 160258Z AUTO 25005KT 10SM FEW220 06/M06 A3017 RMK AO2 SLP232 T00581058 51006 $


Wind From 250°
Speed 05 kn.

 
 
jpsmedia.com for Web Design worldairports.se 2018   terms of use